Time;durP1;ratioP1;P1;durP2;ratioP2;P2;SDS_P1;SDS_P2;PMS_P1;PMS_P2;Temp;Humidity;BMP_temperature;BMP_pressure;BME280_temperature;BME280_humidity;BME280_pressure;Samples;Min_cycle;Max_cycle;Signal;HPM_P1;HPM_P2
2023/05/05 00:02:19;;;;;;;7.53;5.15;;;;;;;;;;4926701;28;20043;-74
2023/05/05 00:04:58;;;;;;;7.68;5.20;;;;;;;;;;4932071;29;20036;-75
2023/05/05 00:20:01;;;;;;;;;;;;;;;;;;;;;
2023/05/05 00:22:49;;;;;;;9.20;5.78;;;;;;;;;;4911183;29;20511;-75
2023/05/05 00:35:11;;;;;;;12.73;5.30;;;;;;;;;;4912840;29;20494;-74
2023/05/05 00:53:10;;;;;;;9.48;4.28;;;;;;;;;;4951788;28;20653;-75
2023/05/05 00:55:42;;;;;;;5.40;3.83;;;;;;;;;;5008941;28;20033;-74
2023/05/05 01:01:21;;;;;;;8.77;4.53;;;;;;;;;;5018667;28;20026;-74
2023/05/05 01:04:22;;;;;;;13.30;5.10;;;;;;;;;;5018728;28;20038;-74
2023/05/05 01:09:53;;;;;;;;;;;;;;;;;;;;;
2023/05/05 01:12:56;;;;;;;8.38;4.70;;;;;;;;;;5031599;28;20033;-75
2023/05/05 01:22:38;;;;;;;;;;;;;;;;;;;;;
2023/05/05 01:25:07;;;;;;;9.50;4.78;;;;;;;;;;5021740;28;20403;-74
2023/05/05 01:30:51;;;;;;;8.50;5.22;;;;;;;;;;5045889;28;20029;-74
2023/05/05 01:34:14;;;;;;;6.10;4.40;;;;;;;;;;5003366;28;20037;-75
2023/05/05 01:39:31;;;;;;;8.45;4.82;;;;;;;;;;5031660;28;20132;-74
2023/05/05 01:45:37;;;;;;;8.40;4.40;;;;;;;;;;4974306;28;20027;-75
2023/05/05 01:51:35;;;;;;;8.88;4.57;;;;;;;;;;4974343;28;20038;-75
2023/05/05 01:54:25;;;;;;;9.68;5.20;;;;;;;;;;4983486;28;20052;-75
2023/05/05 02:03:22;;;;;;;14.43;5.05;;;;;;;;;;4967771;28;20496;-75
2023/05/05 02:05:48;;;;;;;8.48;5.05;;;;;;;;;;5027804;28;20033;-74
2023/05/05 02:08:15;;;;;;;9.70;4.82;;;;;;;;;;5034154;28;20024;-74
2023/05/05 02:10:42;;;;;;;9.65;4.90;;;;;;;;;;5033839;28;20026;-74
2023/05/05 02:13:11;;;;;;;6.68;4.35;;;;;;;;;;5033858;28;20556;-74
2023/05/05 02:15:37;;;;;;;13.80;4.80;;;;;;;;;;5034364;28;20068;-74
2023/05/05 02:18:06;;;;;;;9.68;4.05;;;;;;;;;;5034027;28;20033;-74
2023/05/05 02:20:32;;;;;;;8.18;4.47;;;;;;;;;;5034311;28;20025;-75
2023/05/05 02:22:59;;;;;;;7.10;4.10;;;;;;;;;;5034386;28;20017;-74
2023/05/05 02:25:31;;;;;;;12.88;4.22;;;;;;;;;;5034211;28;20030;-74
2023/05/05 02:27:58;;;;;;;9.15;4.15;;;;;;;;;;5033843;28;20038;-74
2023/05/05 02:30:24;;;;;;;7.93;4.45;;;;;;;;;;5034175;28;20029;-75
2023/05/05 02:32:54;;;;;;;8.95;4.72;;;;;;;;;;5034313;28;20037;-74
2023/05/05 02:35:22;;;;;;;8.25;4.85;;;;;;;;;;5034049;28;20033;-74
2023/05/05 02:46:13;;;;;;;5.47;4.15;;;;;;;;;;4934690;29;20641;-75
2023/05/05 02:48:58;;;;;;;11.25;4.88;;;;;;;;;;4934022;29;20047;-75
2023/05/05 02:52:00;;;;;;;8.45;4.65;;;;;;;;;;5025312;28;20037;-75
2023/05/05 02:55:01;;;;;;;7.18;4.90;;;;;;;;;;5032032;28;20029;-75
2023/05/05 03:01:07;;;;;;;9.07;4.72;;;;;;;;;;5004750;28;20030;-75
2023/05/05 03:07:12;;;;;;;;;;;;;;;;;;;;;
2023/05/05 03:13:24;;;;;;;;;;;;;;;;;;;;;
2023/05/05 03:16:09;;;;;;;10.88;5.15;;;;;;;;;;4977332;28;20037;-75
2023/05/05 03:18:45;;;;;;;7.10;3.90;;;;;;;;;;5033378;28;20037;-75
2023/05/05 03:21:23;;;;;;;7.78;4.95;;;;;;;;;;5033150;28;20507;-75
2023/05/05 03:24:10;;;;;;;8.07;4.70;;;;;;;;;;5033598;28;20025;-75
2023/05/05 03:29:30;;;;;;;13.15;4.35;;;;;;;;;;5048727;22;20087;-75
2023/05/05 03:35:11;;;;;;;14.60;4.57;;;;;;;;;;5034985;28;20044;-74
2023/05/05 03:37:59;;;;;;;22.58;5.45;;;;;;;;;;5033594;28;20032;-74
2023/05/05 03:40:56;;;;;;;8.13;4.88;;;;;;;;;;5033671;28;20028;-74
2023/05/05 03:50:13;;;;;;;13.32;4.72;;;;;;;;;;5003554;28;20396;-74
2023/05/05 03:56:09;;;;;;;11.57;5.20;;;;;;;;;;4938654;29;20122;-76
2023/05/05 04:04:07;;;;;;;9.82;4.60;;;;;;;;;;4821776;26;20136;-74
2023/05/05 04:06:42;;;;;;;10.30;4.82;;;;;;;;;;5032390;28;20022;-74
2023/05/05 04:09:34;;;;;;;9.70;4.88;;;;;;;;;;5012799;28;20026;-74
2023/05/05 04:12:13;;;;;;;10.25;4.43;;;;;;;;;;5013184;28;20084;-74
2023/05/05 04:14:39;;;;;;;7.03;4.55;;;;;;;;;;5010981;28;20113;-74
2023/05/05 04:26:00;;;;;;;9.05;4.63;;;;;;;;;;5026125;28;20736;-75
2023/05/05 04:51:04;;;;;;;10.32;4.95;;;;;;;;;;4875972;29;20096;-74
2023/05/05 04:57:16;;;;;;;8.05;4.40;;;;;;;;;;4840701;29;20417;-75
2023/05/05 05:03:17;;;;;;;8.60;4.40;;;;;;;;;;4991864;28;20023;-76
2023/05/05 05:05:57;;;;;;;8.85;4.55;;;;;;;;;;5052485;28;20686;-75
2023/05/05 05:08:38;;;;;;;8.32;4.13;;;;;;;;;;5045867;28;20037;-75
2023/05/05 05:11:04;;;;;;;;;;;;;;;;;;5051929;28;20037;-75
2023/05/05 05:13:42;;;;;;;12.10;4.30;;;;;;;;;;5051900;28;19904;-74
2023/05/05 05:16:18;;;;;;;12.35;4.22;;;;;;;;;;5051308;28;20024;-75
2023/05/05 05:18:47;;;;;;;7.60;4.38;;;;;;;;;;5040202;23;20052;-73
2023/05/05 05:21:16;;;;;;;10.13;4.20;;;;;;;;;;5031082;28;20087;-75
2023/05/05 05:27:13;;;;;;;7.80;4.20;;;;;;;;;;5025960;28;20033;-75
2023/05/05 05:30:16;;;;;;;11.13;4.93;;;;;;;;;;5011428;28;20033;-75
2023/05/05 05:32:45;;;;;;;11.40;5.57;;;;;;;;;;5010584;28;20022;-79
2023/05/05 05:38:02;;;;;;;7.47;4.57;;;;;;;;;;5000253;28;20117;-76
2023/05/05 05:40:40;;;;;;;11.20;4.50;;;;;;;;;;5012600;28;20076;-75
2023/05/05 05:43:20;;;;;;;11.63;4.97;;;;;;;;;;5012015;28;20029;-76
2023/05/05 05:45:52;;;;;;;10.45;4.47;;;;;;;;;;5011690;28;20033;-74
2023/05/05 05:48:41;;;;;;;7.30;3.97;;;;;;;;;;4996807;28;20034;-75
2023/05/05 05:54:55;;;;;;;7.25;4.30;;;;;;;;;;5016298;28;20121;-75
2023/05/05 06:01:02;;;;;;;;;;;;;;;;;;;;;
2023/05/05 06:03:44;;;;;;;11.57;3.88;;;;;;;;;;5014763;28;20302;-75
2023/05/05 06:09:20;;;;;;;11.82;5.13;;;;;;;;;;4934113;29;20040;-75
2023/05/05 06:12:08;;;;;;;10.25;4.28;;;;;;;;;;5014483;28;20036;-75
2023/05/05 06:21:34;;;;;;;9.10;4.43;;;;;;;;;;5034246;28;20515;-76
2023/05/05 06:23:46;;;;;;;12.90;4.50;;;;;;;;;;5025534;28;20029;-75
2023/05/05 06:26:24;;;;;;;8.82;4.35;;;;;;;;;;5033124;28;20395;-76
2023/05/05 06:28:50;;;;;;;7.93;3.88;;;;;;;;;;5054055;23;20046;-77
2023/05/05 06:31:17;;;;;;;12.15;4.10;;;;;;;;;;5033497;28;20026;-76
2023/05/05 06:33:43;;;;;;;9.10;4.50;;;;;;;;;;5034250;28;20450;-76
2023/05/05 06:36:09;;;;;;;6.93;4.00;;;;;;;;;;5033614;28;20079;-75
2023/05/05 06:38:35;;;;;;;11.07;3.95;;;;;;;;;;5052882;28;20036;-77
2023/05/05 06:41:01;;;;;;;8.40;4.05;;;;;;;;;;5062994;28;20074;-76
2023/05/05 06:43:30;;;;;;;8.88;4.25;;;;;;;;;;5050476;28;20454;-76
2023/05/05 06:45:56;;;;;;;9.27;4.18;;;;;;;;;;5053864;28;20387;-76
2023/05/05 06:48:22;;;;;;;10.13;3.85;;;;;;;;;;5052590;28;20098;-76
2023/05/05 06:50:48;;;;;;;9.20;3.75;;;;;;;;;;5053076;28;20132;-76
2023/05/05 06:53:15;;;;;;;10.43;4.47;;;;;;;;;;5052104;28;20074;-76
2023/05/05 06:55:47;;;;;;;11.80;4.70;;;;;;;;;;5053459;28;20090;-77
2023/05/05 06:58:13;;;;;;;11.73;4.57;;;;;;;;;;5052240;28;20537;-75
2023/05/05 07:00:39;;;;;;;4.90;3.72;;;;;;;;;;5052914;28;20056;-77
2023/05/05 07:03:05;;;;;;;11.05;4.40;;;;;;;;;;5053054;28;20101;-76
2023/05/05 07:05:32;;;;;;;12.60;4.68;;;;;;;;;;5052056;28;20014;-76
2023/05/05 07:07:58;;;;;;;6.20;3.97;;;;;;;;;;5052307;28;20032;-76
2023/05/05 07:10:24;;;;;;;8.70;4.22;;;;;;;;;;5052935;28;20037;-77
2023/05/05 07:12:51;;;;;;;9.90;4.25;;;;;;;;;;5052841;28;20143;-77
2023/05/05 07:15:17;;;;;;;6.85;3.53;;;;;;;;;;5052805;28;20415;-76
2023/05/05 07:17:43;;;;;;;7.05;3.85;;;;;;;;;;5052768;28;20025;-76
2023/05/05 07:20:09;;;;;;;7.18;4.03;;;;;;;;;;5051888;28;20508;-77
2023/05/05 07:22:35;;;;;;;9.90;4.25;;;;;;;;;;5052884;28;20024;-77
2023/05/05 07:25:02;;;;;;;10.82;3.88;;;;;;;;;;5051249;28;20032;-76
2023/05/05 07:27:29;;;;;;;8.10;3.75;;;;;;;;;;5050848;28;20551;-76
2023/05/05 07:29:55;;;;;;;8.20;3.67;;;;;;;;;;5053155;28;20083;-76
2023/05/05 07:32:21;;;;;;;7.32;3.67;;;;;;;;;;5072309;28;20502;-76
2023/05/05 07:34:47;;;;;;;7.32;3.38;;;;;;;;;;5079298;28;20024;-76
2023/05/05 07:37:13;;;;;;;8.18;3.83;;;;;;;;;;5072835;28;20032;-76
2023/05/05 07:39:40;;;;;;;7.05;3.33;;;;;;;;;;5072633;28;20016;-76
2023/05/05 07:42:06;;;;;;;8.80;3.60;;;;;;;;;;5072948;28;20044;-76
2023/05/05 07:44:33;;;;;;;6.63;3.70;;;;;;;;;;5071672;28;20118;-76
2023/05/05 07:47:01;;;;;;;5.88;3.42;;;;;;;;;;5071954;28;20020;-75
2023/05/05 07:49:27;;;;;;;8.75;3.67;;;;;;;;;;5071852;28;20074;-77
2023/05/05 07:51:54;;;;;;;8.80;3.42;;;;;;;;;;5054166;28;20024;-76
2023/05/05 07:54:20;;;;;;;5.30;3.05;;;;;;;;;;5072197;28;20024;-76
2023/05/05 07:56:46;;;;;;;9.50;3.75;;;;;;;;;;5072439;28;20028;-77
2023/05/05 07:59:12;;;;;;;7.88;3.30;;;;;;;;;;5072242;28;20024;-77
2023/05/05 08:01:38;;;;;;;6.75;3.75;;;;;;;;;;5054451;28;20021;-77
2023/05/05 08:04:05;;;;;;;10.77;3.67;;;;;;;;;;5072514;28;20485;-77
2023/05/05 08:06:31;;;;;;;6.75;3.33;;;;;;;;;;5072543;28;20032;-77
2023/05/05 08:09:01;;;;;;;6.40;3.67;;;;;;;;;;5070781;28;20032;-78
2023/05/05 08:11:27;;;;;;;10.07;3.57;;;;;;;;;;5054512;28;20025;-77
2023/05/05 08:13:53;;;;;;;8.80;3.85;;;;;;;;;;5071150;28;20290;-77
2023/05/05 08:16:19;;;;;;;8.18;3.38;;;;;;;;;;5072111;28;20032;-77
2023/05/05 08:18:45;;;;;;;5.20;3.08;;;;;;;;;;5054026;28;20047;-77
2023/05/05 08:21:11;;;;;;;6.20;3.05;;;;;;;;;;5072113;28;20483;-77
2023/05/05 08:23:38;;;;;;;4.57;3.30;;;;;;;;;;5071896;28;20020;-77
2023/05/05 08:26:13;;;;;;;7.45;3.35;;;;;;;;;;5071279;28;20028;-77
2023/05/05 08:28:40;;;;;;;7.93;3.33;;;;;;;;;;5052955;28;20491;-77
2023/05/05 08:31:07;;;;;;;6.78;3.38;;;;;;;;;;5054081;28;20056;-77
2023/05/05 08:33:33;;;;;;;7.97;3.40;;;;;;;;;;5053551;28;20090;-78
2023/05/05 08:35:59;;;;;;;5.75;3.50;;;;;;;;;;5052529;28;20025;-78
2023/05/05 08:38:25;;;;;;;7.50;3.38;;;;;;;;;;5071020;28;20047;-77
2023/05/05 08:40:51;;;;;;;5.47;3.30;;;;;;;;;;5071386;28;20095;-77
2023/05/05 08:43:22;;;;;;;6.35;3.53;;;;;;;;;;5071253;28;20430;-77
2023/05/05 08:45:48;;;;;;;;;;;;;;;;;;5054156;28;20025;-77
2023/05/05 08:48:22;;;;;;;13.60;3.28;;;;;;;;;;5071161;28;19904;-77
2023/05/05 08:50:52;;;;;;;5.97;3.38;;;;;;;;;;5053637;28;20024;-78
2023/05/05 08:53:25;;;;;;;6.18;2.75;;;;;;;;;;5071358;28;20028;-77
2023/05/05 08:55:54;;;;;;;11.55;3.42;;;;;;;;;;5071604;28;20502;-78
2023/05/05 08:58:22;;;;;;;6.90;3.22;;;;;;;;;;5070991;28;20029;-77
2023/05/05 09:00:49;;;;;;;4.35;3.10;;;;;;;;;;5071681;28;20031;-77
2023/05/05 09:03:16;;;;;;;5.03;3.38;;;;;;;;;;5071227;28;20028;-76
2023/05/05 09:05:42;;;;;;;8.38;3.10;;;;;;;;;;5071097;28;20108;-77
2023/05/05 09:08:12;;;;;;;8.50;2.95;;;;;;;;;;5070730;28;20119;-77
2023/05/05 09:10:41;;;;;;;7.47;3.20;;;;;;;;;;5071680;28;20025;-77
2023/05/05 09:13:07;;;;;;;5.68;3.25;;;;;;;;;;5071273;28;20028;-77
2023/05/05 09:15:33;;;;;;;10.10;3.10;;;;;;;;;;5071148;28;20107;-77
2023/05/05 09:18:00;;;;;;;4.30;2.38;;;;;;;;;;5070609;28;20028;-77
2023/05/05 09:20:34;;;;;;;6.07;2.65;;;;;;;;;;5053725;28;20025;-77
2023/05/05 09:23:07;;;;;;;9.18;3.03;;;;;;;;;;5074607;28;20032;-76
2023/05/05 09:25:33;;;;;;;5.80;2.70;;;;;;;;;;5075098;28;20024;-77
2023/05/05 09:28:07;;;;;;;6.63;3.25;;;;;;;;;;5056351;28;20071;-77
2023/05/05 09:30:37;;;;;;;9.35;2.40;;;;;;;;;;5075029;28;20081;-77
2023/05/05 09:33:03;;;;;;;4.88;2.95;;;;;;;;;;5056848;28;20032;-76
2023/05/05 09:35:46;;;;;;;6.07;2.58;;;;;;;;;;5074318;28;20436;-77
2023/05/05 09:38:12;;;;;;;4.97;3.25;;;;;;;;;;5074935;28;20036;-76
2023/05/05 09:40:50;;;;;;;7.25;2.85;;;;;;;;;;5079540;28;20052;-76
2023/05/05 09:43:17;;;;;;;8.20;2.58;;;;;;;;;;5066994;28;20016;-76
2023/05/05 09:45:43;;;;;;;8.65;2.70;;;;;;;;;;5078964;28;20021;-76
2023/05/05 09:48:28;;;;;;;5.70;2.28;;;;;;;;;;5074439;28;20025;-77
2023/05/05 09:50:55;;;;;;;4.13;2.60;;;;;;;;;;5074529;28;20099;-77
2023/05/05 09:53:21;;;;;;;5.32;2.67;;;;;;;;;;5074552;28;20034;-77
2023/05/05 09:55:57;;;;;;;4.63;2.65;;;;;;;;;;5074086;28;20127;-76
2023/05/05 09:58:24;;;;;;;7.20;3.00;;;;;;;;;;5073796;28;20043;-76
2023/05/05 10:00:51;;;;;;;4.88;2.70;;;;;;;;;;5074375;28;20363;-76
2023/05/05 10:03:18;;;;;;;4.00;2.50;;;;;;;;;;5074032;28;20552;-75
2023/05/05 10:05:49;;;;;;;5.07;2.28;;;;;;;;;;5074073;28;20363;-76
2023/05/05 10:08:15;;;;;;;3.20;2.35;;;;;;;;;;5073419;28;20031;-76
2023/05/05 10:10:55;;;;;;;2.47;1.90;;;;;;;;;;5074316;28;20052;-76
2023/05/05 10:13:22;;;;;;;8.57;3.13;;;;;;;;;;5074320;28;20402;-76
2023/05/05 10:15:51;;;;;;;4.20;2.10;;;;;;;;;;5074096;28;20027;-75
2023/05/05 10:18:19;;;;;;;5.03;2.25;;;;;;;;;;5073859;28;20055;-77
2023/05/05 10:20:47;;;;;;;6.03;2.05;;;;;;;;;;5074153;28;20106;-76
2023/05/05 10:23:18;;;;;;;6.55;2.15;;;;;;;;;;5074153;28;20020;-77
2023/05/05 10:25:51;;;;;;;3.75;2.00;;;;;;;;;;5073883;28;20032;-77
2023/05/05 10:28:22;;;;;;;9.30;2.45;;;;;;;;;;5073253;28;20028;-77
2023/05/05 10:30:48;;;;;;;;;;;;;;;;;;5061061;28;20035;-76
2023/05/05 10:33:18;;;;;;;5.80;2.47;;;;;;;;;;5081975;28;19904;-77
2023/05/05 10:35:44;;;;;;;4.97;2.42;;;;;;;;;;5078534;28;20343;-78
2023/05/05 10:38:11;;;;;;;6.35;2.33;;;;;;;;;;5055137;28;20077;-76
2023/05/05 10:40:39;;;;;;;4.65;2.35;;;;;;;;;;5074352;28;20232;-77
2023/05/05 10:43:06;;;;;;;7.80;2.30;;;;;;;;;;5073439;28;20063;-77
2023/05/05 10:45:32;;;;;;;5.53;1.92;;;;;;;;;;5073723;28;20028;-77
2023/05/05 10:48:00;;;;;;;5.22;2.22;;;;;;;;;;5072739;28;20028;-77
2023/05/05 10:50:26;;;;;;;3.25;2.10;;;;;;;;;;5073778;28;20080;-76
2023/05/05 10:53:31;;;;;;;5.15;2.28;;;;;;;;;;5072889;28;20035;-76
2023/05/05 10:56:03;;;;;;;4.80;2.10;;;;;;;;;;4972725;28;20038;-77
2023/05/05 10:58:33;;;;;;;3.20;1.95;;;;;;;;;;4972389;28;20509;-76
2023/05/05 11:00:59;;;;;;;5.38;2.28;;;;;;;;;;5027144;28;20052;-77
2023/05/05 11:03:25;;;;;;;4.13;2.17;;;;;;;;;;5073852;28;20025;-77
2023/05/05 11:06:04;;;;;;;5.00;2.53;;;;;;;;;;5054975;28;20394;-77
2023/05/05 11:08:31;;;;;;;5.93;2.22;;;;;;;;;;5071368;28;20029;-76
2023/05/05 11:10:57;;;;;;;2.65;2.10;;;;;;;;;;5053732;28;20033;-76
2023/05/05 11:13:23;;;;;;;10.25;2.45;;;;;;;;;;5073061;28;20406;-76
2023/05/05 11:15:53;;;;;;;3.40;2.13;;;;;;;;;;5055065;28;20158;-77
2023/05/05 11:18:35;;;;;;;4.82;2.30;;;;;;;;;;5072612;28;20097;-77
2023/05/05 11:21:02;;;;;;;3.42;1.90;;;;;;;;;;5073024;28;20017;-77
2023/05/05 11:23:29;;;;;;;4.45;1.83;;;;;;;;;;5073021;28;20024;-77
2023/05/05 11:25:56;;;;;;;3.30;2.28;;;;;;;;;;5073068;28;20039;-77
2023/05/05 11:28:24;;;;;;;4.70;2.10;;;;;;;;;;5072732;28;20078;-77
2023/05/05 11:30:59;;;;;;;5.00;2.10;;;;;;;;;;5073442;28;20028;-77
2023/05/05 11:33:28;;;;;;;8.63;2.75;;;;;;;;;;5073432;28;20020;-76
2023/05/05 11:35:57;;;;;;;3.08;1.90;;;;;;;;;;5072930;28;20479;-76
2023/05/05 11:38:26;;;;;;;7.80;2.25;;;;;;;;;;5072540;28;20487;-77
2023/05/05 11:40:57;;;;;;;3.88;1.85;;;;;;;;;;5072549;28;20031;-78
2023/05/05 11:43:23;;;;;;;;;;;;;;;;;;5072832;28;20107;-77
2023/05/05 11:45:50;;;;;;;4.15;2.22;;;;;;;;;;5054083;28;20022;-77
2023/05/05 11:48:26;;;;;;;6.47;2.40;;;;;;;;;;5072468;28;20115;-77
2023/05/05 11:50:53;;;;;;;5.18;2.42;;;;;;;;;;5072409;28;20040;-77
2023/05/05 11:53:19;;;;;;;4.25;1.92;;;;;;;;;;5054281;28;20029;-77
2023/05/05 11:55:45;;;;;;;4.80;2.25;;;;;;;;;;5072147;28;20027;-76
2023/05/05 11:58:20;;;;;;;4.65;2.50;;;;;;;;;;5053854;28;20394;-76
2023/05/05 12:00:46;;;;;;;4.30;2.15;;;;;;;;;;5054140;28;20021;-77
2023/05/05 12:03:13;;;;;;;6.75;2.42;;;;;;;;;;5072034;28;20036;-77
2023/05/05 12:05:39;;;;;;;3.65;1.95;;;;;;;;;;5072352;28;20082;-76
2023/05/05 12:08:05;;;;;;;3.88;1.95;;;;;;;;;;5071589;28;20021;-76
2023/05/05 12:10:31;;;;;;;5.32;2.15;;;;;;;;;;5071782;28;20024;-76
2023/05/05 12:12:57;;;;;;;5.72;2.22;;;;;;;;;;5071851;28;20035;-77
2023/05/05 12:15:35;;;;;;;4.93;2.47;;;;;;;;;;5054221;28;20494;-76
2023/05/05 12:18:01;;;;;;;7.35;2.30;;;;;;;;;;5071716;28;20449;-76
2023/05/05 12:20:31;;;;;;;7.13;2.47;;;;;;;;;;5072443;28;20070;-76
2023/05/05 12:23:01;;;;;;;8.65;2.75;;;;;;;;;;5072012;28;20073;-76
2023/05/05 12:25:34;;;;;;;4.15;2.40;;;;;;;;;;5071850;28;20108;-76
2023/05/05 12:28:03;;;;;;;5.85;2.17;;;;;;;;;;5071735;28;20225;-76
2023/05/05 12:30:42;;;;;;;5.47;2.10;;;;;;;;;;5061957;23;20045;-74
2023/05/05 12:33:14;;;;;;;4.60;2.67;;;;;;;;;;5031817;28;20025;-74
2023/05/05 12:35:49;;;;;;;4.32;2.13;;;;;;;;;;5031756;28;20021;-75
2023/05/05 12:38:24;;;;;;;5.07;2.45;;;;;;;;;;5031271;28;20036;-75
2023/05/05 12:40:55;;;;;;;4.90;2.33;;;;;;;;;;5031705;28;20128;-74
2023/05/05 12:43:43;;;;;;;10.10;2.35;;;;;;;;;;5031829;28;20018;-74
2023/05/05 12:46:25;;;;;;;7.78;2.50;;;;;;;;;;5031673;28;20028;-74
2023/05/05 12:49:15;;;;;;;3.53;2.13;;;;;;;;;;5031850;28;20403;-74
2023/05/05 12:51:59;;;;;;;5.18;2.15;;;;;;;;;;5014118;28;20025;-74
2023/05/05 12:57:16;;;;;;;;;;;;;;;;;;5035945;28;20518;-74
2023/05/05 12:59:51;;;;;;;5.20;2.08;;;;;;;;;;5017637;28;20004;-75
2023/05/05 13:02:20;;;;;;;4.50;2.20;;;;;;;;;;5035651;28;20025;-75
2023/05/05 13:04:52;;;;;;;5.50;2.30;;;;;;;;;;5035557;28;20108;-74
2023/05/05 13:07:27;;;;;;;4.63;2.20;;;;;;;;;;5035540;28;20029;-75
2023/05/05 13:10:05;;;;;;;5.55;1.90;;;;;;;;;;5017781;28;20053;-75
2023/05/05 13:12:31;;;;;;;6.55;2.13;;;;;;;;;;5035586;28;20032;-75
2023/05/05 13:14:57;;;;;;;5.32;2.25;;;;;;;;;;5035653;28;20021;-75
2023/05/05 13:17:23;;;;;;;3.13;2.25;;;;;;;;;;5035468;28;20026;-74
2023/05/05 13:19:50;;;;;;;4.65;2.20;;;;;;;;;;5035449;28;20079;-75
2023/05/05 13:22:16;;;;;;;3.53;2.03;;;;;;;;;;5035277;28;20028;-74
2023/05/05 13:24:44;;;;;;;8.00;2.30;;;;;;;;;;5035684;28;20021;-75
2023/05/05 13:27:11;;;;;;;8.23;1.85;;;;;;;;;;5034943;28;20021;-75
2023/05/05 13:29:41;;;;;;;6.65;2.30;;;;;;;;;;5262974;23;20041;-75
2023/05/05 13:32:22;;;;;;;5.32;2.15;;;;;;;;;;5035206;28;20045;-75
2023/05/05 13:34:59;;;;;;;5.35;2.20;;;;;;;;;;4992514;28;20034;-74
2023/05/05 13:48:21;;;;;;;5.55;2.00;;;;;;;;;;5574264;23;20554;-74
2023/05/05 13:51:00;;;;;;;2.95;2.33;;;;;;;;;;5054601;28;20025;-74
2023/05/05 13:53:33;;;;;;;3.80;2.20;;;;;;;;;;5051413;28;20487;-75
2023/05/05 13:56:00;;;;;;;7.70;1.95;;;;;;;;;;5043537;28;20408;-75
2023/05/05 14:04:12;;;;;;;5.25;2.53;;;;;;;;;;5034938;28;20074;-75
2023/05/05 14:07:01;;;;;;;4.72;2.25;;;;;;;;;;5033576;28;20503;-74
2023/05/05 14:09:36;;;;;;;2.58;1.77;;;;;;;;;;5010520;28;20033;-75
2023/05/05 14:12:02;;;;;;;5.93;1.98;;;;;;;;;;5053952;28;20044;-75
2023/05/05 14:17:44;;;;;;;6.43;2.17;;;;;;;;;;5054317;28;20076;-76
2023/05/05 14:20:15;;;;;;;5.50;1.92;;;;;;;;;;5037766;28;20107;-75
2023/05/05 14:22:42;;;;;;;6.03;2.17;;;;;;;;;;5054590;28;20023;-76
2023/05/05 14:25:08;;;;;;;7.40;2.80;;;;;;;;;;5054966;28;20028;-75
2023/05/05 14:27:42;;;;;;;2.63;2.33;;;;;;;;;;5050771;28;20029;-75
2023/05/05 14:36:28;;;;;;;7.10;2.00;;;;;;;;;;5054018;28;20151;-75
2023/05/05 14:39:09;;;;;;;6.82;2.13;;;;;;;;;;5034911;28;20029;-74
2023/05/05 14:41:53;;;;;;;3.67;1.95;;;;;;;;;;5036016;28;20025;-75
2023/05/05 14:44:31;;;;;;;2.75;1.90;;;;;;;;;;5035868;28;20083;-75
2023/05/05 14:47:00;;;;;;;4.55;2.47;;;;;;;;;;5053664;28;20499;-74
2023/05/05 14:49:34;;;;;;;8.07;2.47;;;;;;;;;;5034970;28;20136;-74
2023/05/05 14:52:28;;;;;;;7.00;2.40;;;;;;;;;;5053311;28;20116;-74
2023/05/05 14:58:06;;;;;;;;;;;;;;;;;;;;;
2023/05/05 15:00:40;;;;;;;4.65;2.08;;;;;;;;;;5053061;28;20025;-75
2023/05/05 15:03:11;;;;;;;7.45;2.67;;;;;;;;;;5053073;28;20048;-74
2023/05/05 15:05:47;;;;;;;2.60;1.90;;;;;;;;;;5053199;28;20017;-74
2023/05/05 15:08:13;;;;;;;4.03;2.00;;;;;;;;;;5052268;28;20032;-76
2023/05/05 15:10:44;;;;;;;7.00;2.40;;;;;;;;;;5053059;28;20059;-74
2023/05/05 15:13:12;;;;;;;5.07;2.45;;;;;;;;;;5035034;28;20041;-75
2023/05/05 15:15:41;;;;;;;4.65;2.20;;;;;;;;;;5052911;28;20032;-74
2023/05/05 15:18:12;;;;;;;5.43;2.13;;;;;;;;;;5034323;28;20025;-76
2023/05/05 15:20:47;;;;;;;4.50;2.10;;;;;;;;;;5052915;28;20104;-75
2023/05/05 15:23:19;;;;;;;5.72;2.25;;;;;;;;;;5052912;28;20100;-75
2023/05/05 15:25:47;;;;;;;3.63;2.03;;;;;;;;;;5052892;28;20024;-75
2023/05/05 15:28:31;;;;;;;5.63;2.42;;;;;;;;;;5052370;28;20017;-75
2023/05/05 15:31:01;;;;;;;3.92;2.08;;;;;;;;;;5034511;28;20481;-76
2023/05/05 15:33:35;;;;;;;6.70;2.40;;;;;;;;;;5052321;28;20040;-74
2023/05/05 15:36:04;;;;;;;5.15;2.13;;;;;;;;;;5052519;28;20045;-74
2023/05/05 15:38:45;;;;;;;7.13;2.65;;;;;;;;;;5051601;28;20029;-75
2023/05/05 15:44:52;;;;;;;4.80;2.25;;;;;;;;;;4952073;29;20023;-74
2023/05/05 15:47:18;;;;;;;8.20;3.10;;;;;;;;;;4951720;29;20091;-76
2023/05/05 15:49:50;;;;;;;17.38;6.22;;;;;;;;;;4951765;29;20051;-75
2023/05/05 15:52:28;;;;;;;9.07;6.05;;;;;;;;;;4935843;29;20090;-74
2023/05/05 15:55:07;;;;;;;3.35;2.20;;;;;;;;;;4964793;28;20031;-74
2023/05/05 15:58:13;;;;;;;5.53;2.30;;;;;;;;;;5051781;28;20028;-74
2023/05/05 16:00:43;;;;;;;4.22;2.38;;;;;;;;;;5037234;23;20046;-75
2023/05/05 16:03:15;;;;;;;8.52;2.55;;;;;;;;;;5032685;28;20061;-74
2023/05/05 16:06:00;;;;;;;8.57;2.13;;;;;;;;;;5032912;28;20021;-76
2023/05/05 16:08:37;;;;;;;4.85;2.08;;;;;;;;;;5030657;28;20120;-75
2023/05/05 16:11:06;;;;;;;6.03;3.13;;;;;;;;;;4994995;28;20025;-75
2023/05/05 16:13:35;;;;;;;6.40;2.72;;;;;;;;;;5012497;28;20510;-76
2023/05/05 16:16:06;;;;;;;4.72;2.38;;;;;;;;;;4994516;28;20435;-75
2023/05/05 16:18:35;;;;;;;;;;;;;;;;;;5002547;28;20034;-75
2023/05/05 16:21:22;;;;;;;4.22;2.33;;;;;;;;;;4993143;28;19905;-75
2023/05/05 16:24:00;;;;;;;8.23;2.58;;;;;;;;;;4975780;28;20726;-76
2023/05/05 16:26:31;;;;;;;6.82;2.53;;;;;;;;;;4992947;28;20121;-74
2023/05/05 16:28:57;;;;;;;;;;;;;;;;;;4993027;28;20053;-74
2023/05/05 16:31:34;;;;;;;6.60;2.53;;;;;;;;;;4991469;28;20011;-73
2023/05/05 16:34:24;;;;;;;5.53;2.10;;;;;;;;;;4994178;28;20038;-76
2023/05/05 16:36:56;;;;;;;4.18;2.13;;;;;;;;;;4992516;28;20133;-74
2023/05/05 16:39:34;;;;;;;9.05;2.55;;;;;;;;;;4991369;28;20122;-74
2023/05/05 16:45:50;;;;;;;7.60;2.53;;;;;;;;;;4991546;28;20092;-74
2023/05/05 16:48:25;;;;;;;10.60;3.05;;;;;;;;;;4988962;28;20030;-75
2023/05/05 16:50:58;;;;;;;6.75;2.60;;;;;;;;;;4991334;28;20042;-75
2023/05/05 16:53:27;;;;;;;9.13;4.07;;;;;;;;;;4992342;28;20030;-75
2023/05/05 16:56:02;;;;;;;7.65;2.83;;;;;;;;;;4991521;28;20089;-75
2023/05/05 16:58:38;;;;;;;6.72;2.45;;;;;;;;;;4991657;28;20061;-74
2023/05/05 17:01:19;;;;;;;6.43;2.50;;;;;;;;;;4992041;28;20507;-74
2023/05/05 17:03:48;;;;;;;9.90;2.38;;;;;;;;;;4992235;28;20046;-74
2023/05/05 17:06:17;;;;;;;6.47;2.00;;;;;;;;;;4992560;28;20034;-74
2023/05/05 17:08:43;;;;;;;14.02;3.03;;;;;;;;;;4991498;28;20037;-74
2023/05/05 17:11:21;;;;;;;10.75;2.83;;;;;;;;;;4992250;28;20616;-75
2023/05/05 17:13:49;;;;;;;5.32;2.88;;;;;;;;;;4992008;28;20022;-74
2023/05/05 17:17:08;;;;;;;;;;;;;;;;;;;;;
2023/05/05 17:25:24;;;;;;;8.85;3.67;;;;;;;;;;4992377;28;20030;-75
2023/05/05 17:28:18;;;;;;;;;;;;;;;;;;;;;
2023/05/05 17:31:21;;;;;;;12.80;7.07;;;;;;;;;;5011495;28;20040;-75
2023/05/05 17:34:05;;;;;;;15.02;7.20;;;;;;;;;;4917535;29;20032;-75
2023/05/05 17:36:47;;;;;;;19.73;10.52;;;;;;;;;;4933423;29;20047;-75
2023/05/05 17:39:25;;;;;;;15.20;8.75;;;;;;;;;;4932332;29;20066;-74
2023/05/05 17:42:03;;;;;;;10.75;4.88;;;;;;;;;;4933908;29;20036;-75
2023/05/05 17:45:19;;;;;;;10.77;4.63;;;;;;;;;;4937402;29;20066;-75
2023/05/05 17:48:30;;;;;;;7.28;4.70;;;;;;;;;;4942389;28;20054;-75
2023/05/05 17:50:58;;;;;;;5.97;3.42;;;;;;;;;;5015548;28;20029;-74
2023/05/05 17:53:48;;;;;;;3.85;2.75;;;;;;;;;;5018526;28;20022;-75
2023/05/05 17:56:26;;;;;;;7.55;4.15;;;;;;;;;;5019676;28;20029;-75
2023/05/05 17:59:11;;;;;;;4.80;3.05;;;;;;;;;;5017075;28;20088;-75
2023/05/05 18:01:37;;;;;;;11.13;5.07;;;;;;;;;;5014967;28;20088;-75
2023/05/05 18:04:15;;;;;;;8.02;3.90;;;;;;;;;;4997170;28;20061;-74
2023/05/05 18:06:59;;;;;;;6.45;3.88;;;;;;;;;;5015066;28;20022;-75
2023/05/05 18:09:29;;;;;;;6.90;3.38;;;;;;;;;;4995787;28;20057;-75
2023/05/05 18:11:58;;;;;;;8.57;4.10;;;;;;;;;;5014626;28;20511;-74
2023/05/05 18:14:33;;;;;;;7.60;3.10;;;;;;;;;;5014445;28;20030;-74
2023/05/05 18:17:02;;;;;;;8.52;3.75;;;;;;;;;;5014469;28;20080;-74
2023/05/05 18:19:43;;;;;;;6.13;2.90;;;;;;;;;;5013436;28;20496;-74
2023/05/05 18:22:10;;;;;;;8.57;3.80;;;;;;;;;;4996443;28;20042;-75
2023/05/05 18:24:36;;;;;;;7.82;3.65;;;;;;;;;;5000155;28;20050;-75
2023/05/05 18:27:04;;;;;;;6.82;3.25;;;;;;;;;;4994832;28;20105;-74
2023/05/05 18:29:30;;;;;;;8.32;3.40;;;;;;;;;;5007361;23;20456;-74
2023/05/05 18:31:56;;;;;;;5.47;4.05;;;;;;;;;;5014390;28;20038;-76
2023/05/05 18:34:22;;;;;;;7.30;3.83;;;;;;;;;;5013887;28;20358;-75
2023/05/05 18:36:50;;;;;;;7.15;3.08;;;;;;;;;;5013119;28;20030;-75
2023/05/05 18:39:16;;;;;;;4.07;3.40;;;;;;;;;;5000067;28;20033;-76
2023/05/05 18:41:42;;;;;;;9.07;3.45;;;;;;;;;;4996787;28;20026;-76
2023/05/05 18:44:09;;;;;;;6.32;3.60;;;;;;;;;;5018698;28;20037;-76
2023/05/05 18:46:35;;;;;;;8.88;3.50;;;;;;;;;;5022317;28;20025;-77
2023/05/05 18:49:01;;;;;;;7.25;4.00;;;;;;;;;;5016568;28;20026;-76
2023/05/05 18:51:27;;;;;;;10.88;3.50;;;;;;;;;;5014220;28;20085;-76
2023/05/05 18:53:54;;;;;;;7.18;3.88;;;;;;;;;;5013707;28;20025;-76
2023/05/05 18:56:20;;;;;;;8.98;3.97;;;;;;;;;;5013933;28;20018;-76
2023/05/05 18:58:46;;;;;;;6.20;3.47;;;;;;;;;;4996136;28;20026;-76
2023/05/05 19:01:12;;;;;;;11.40;8.05;;;;;;;;;;5013825;28;20420;-76